createdAt,value
2019-02-18T00:00:27.656Z,24.87
2019-02-18T00:02:56.013Z,25.90
2019-02-18T00:05:24.757Z,25.70
2019-02-18T00:07:53.170Z,23.95
2019-02-18T00:10:21.815Z,26.05
2019-02-18T00:12:50.518Z,25.60
2019-02-18T00:15:19.201Z,26.68
2019-02-18T00:17:47.875Z,25.72
2019-02-18T00:20:16.286Z,22.35
2019-02-18T00:22:44.675Z,24.43
2019-02-18T00:25:13.068Z,23.77
2019-02-18T00:27:41.799Z,23.95
2019-02-18T00:30:10.192Z,24.95
2019-02-18T00:32:38.868Z,23.60
2019-02-18T00:35:07.268Z,23.47
2019-02-18T00:37:35.930Z,23.87
2019-02-18T00:40:06.781Z,23.02
2019-02-18T00:42:35.558Z,22.60
2019-02-18T00:45:06.904Z,23.67
2019-02-18T00:47:35.296Z,22.95
2019-02-18T00:50:04.567Z,22.30
2019-02-18T00:52:32.990Z,22.65
2019-02-18T00:55:01.648Z,23.52
2019-02-18T00:57:30.056Z,21.95
2019-02-18T00:59:58.704Z,23.52
2019-02-18T01:02:27.413Z,22.27
2019-02-18T01:04:56.092Z,22.00
2019-02-18T01:07:34.226Z,23.38
2019-02-18T01:09:54.957Z,21.25
2019-02-18T01:12:23.689Z,23.10
2019-02-18T01:14:52.355Z,22.90
2019-02-18T01:17:20.757Z,23.60
2019-02-18T01:19:49.143Z,22.48
2019-02-18T01:22:17.798Z,23.10
2019-02-18T01:24:46.191Z,21.62
2019-02-18T01:27:14.584Z,23.35
2019-02-18T01:29:43.242Z,22.25
2019-02-18T01:32:11.926Z,20.52
2019-02-18T01:34:40.614Z,22.93
2019-02-18T01:37:09.304Z,23.35
2019-02-18T01:39:37.987Z,22.87
2019-02-18T01:42:06.687Z,21.35
2019-02-18T01:44:35.362Z,22.95
2019-02-18T01:47:04.049Z,20.57
2019-02-18T01:49:32.435Z,21.70
2019-02-18T01:52:00.865Z,22.50
2019-02-18T01:54:29.260Z,21.68
2019-02-18T01:57:17.062Z,22.67
2019-02-18T01:59:45.476Z,21.62
2019-02-18T02:02:33.204Z,23.10
2019-02-18T02:07:40.800Z,22.30
2019-02-18T02:10:49.116Z,21.77
2019-02-18T02:13:36.913Z,22.10
2019-02-18T02:16:45.491Z,22.60
2019-02-18T02:19:14.240Z,23.30
2019-02-18T02:22:01.984Z,22.07
2019-02-18T02:24:30.374Z,21.37
2019-02-18T02:26:59.100Z,20.60
2019-02-18T02:29:27.508Z,20.70
2019-02-18T02:31:56.165Z,22.22
2019-02-18T02:34:43.935Z,21.15
2019-02-18T02:37:12.580Z,21.17
2019-02-18T02:39:40.973Z,20.23
2019-02-18T02:42:09.386Z,22.85
2019-02-18T02:44:37.781Z,21.00
2019-02-18T02:47:06.514Z,22.45
2019-02-18T02:49:34.965Z,21.80
2019-02-18T02:52:03.357Z,20.40
2019-02-18T02:54:32.055Z,20.68
2019-02-18T02:57:00.469Z,20.48
2019-02-18T02:59:28.880Z,21.57
2019-02-18T03:01:57.264Z,21.12
2019-02-18T03:04:25.983Z,20.70
2019-02-18T03:06:54.378Z,21.80
2019-02-18T03:09:22.770Z,20.97
2019-02-18T03:11:51.545Z,22.32
2019-02-18T03:14:20.190Z,21.52
2019-02-18T03:16:48.585Z,22.82
2019-02-18T03:19:17.271Z,22.25
2019-02-18T03:21:45.971Z,23.40
2019-02-18T03:24:14.656Z,23.18
2019-02-18T03:26:43.331Z,23.90
2019-02-18T03:29:51.697Z,22.93
2019-02-18T03:32:20.329Z,22.85
2019-02-18T03:34:49.018Z,22.32
2019-02-18T03:37:17.714Z,21.68
2019-02-18T03:39:46.101Z,23.40
2019-02-18T03:42:14.515Z,21.45
2019-02-18T03:44:42.905Z,21.73
2019-02-18T03:47:11.296Z,22.17
2019-02-18T03:49:39.956Z,22.80
2019-02-18T03:52:08.593Z,22.35
2019-02-18T03:54:37.257Z,21.87
2019-02-18T03:57:05.900Z,22.17
2019-02-18T03:59:34.712Z,22.85
2019-02-18T04:02:03.119Z,22.17
2019-02-18T04:04:31.514Z,22.15
2019-02-18T04:07:00.161Z,23.15
2019-02-18T04:09:28.817Z,23.05
2019-02-18T04:11:57.214Z,22.35
2019-02-18T04:14:25.634Z,22.45
2019-02-18T04:16:54.021Z,23.40
2019-02-18T04:19:22.433Z,23.32
2019-02-18T04:21:50.831Z,24.05
2019-02-18T04:24:19.471Z,23.60
2019-02-18T04:26:47.870Z,22.37
2019-02-18T04:29:16.272Z,23.60
2019-02-18T04:31:44.941Z,22.60
2019-02-18T04:34:32.924Z,22.87
2019-02-18T04:37:01.337Z,24.75
2019-02-18T04:39:29.738Z,23.85
2019-02-18T04:41:58.424Z,23.52
2019-02-18T04:44:26.832Z,23.57
2019-02-18T04:46:55.483Z,24.55
2019-02-18T04:49:24.171Z,22.05
2019-02-18T04:51:52.833Z,23.55
2019-02-18T04:54:21.221Z,23.07
2019-02-18T04:56:49.921Z,21.77
2019-02-18T04:59:18.310Z,22.22
2019-02-18T05:01:46.723Z,23.73
2019-02-18T05:04:15.120Z,22.90
2019-02-18T05:06:43.514Z,24.32
2019-02-18T05:09:11.915Z,23.73
2019-02-18T05:11:40.602Z,23.10
2019-02-18T05:14:09.014Z,23.40
2019-02-18T05:16:37.414Z,23.92
2019-02-18T05:19:05.795Z,23.05
2019-02-18T05:21:34.211Z,23.47
2019-02-18T05:24:02.601Z,22.80
2019-02-18T05:26:30.997Z,22.80
2019-02-18T05:28:59.401Z,22.40
2019-02-18T05:31:28.044Z,23.02
2019-02-18T05:33:56.728Z,23.57
2019-02-18T05:36:25.414Z,23.50
2019-02-18T05:38:54.098Z,20.17
2019-02-18T05:41:22.895Z,23.92
2019-02-18T05:43:51.291Z,22.73
2019-02-18T05:46:19.688Z,22.77
2019-02-18T05:48:48.338Z,21.90
2019-02-18T05:51:17.022Z,22.48
2019-02-18T05:53:45.413Z,22.45
2019-02-18T05:56:14.083Z,22.65
2019-02-18T05:58:42.771Z,22.95
2019-02-18T06:01:11.165Z,20.62
2019-02-18T06:03:39.832Z,21.12
2019-02-18T06:06:08.236Z,21.95
2019-02-18T06:08:36.626Z,22.22
2019-02-18T06:11:05.017Z,23.27
2019-02-18T06:13:33.426Z,22.52
2019-02-18T06:16:01.814Z,23.05
2019-02-18T06:18:30.202Z,21.73
2019-02-18T06:20:58.892Z,21.40
2019-02-18T06:23:27.318Z,22.32
2019-02-18T06:25:55.704Z,22.85
2019-02-18T06:28:24.108Z,21.55
2019-02-18T06:30:54.875Z,22.50
2019-02-18T06:33:22.938Z,21.93
2019-02-18T06:35:52.133Z,21.75
2019-02-18T06:38:20.924Z,22.10
2019-02-18T06:40:49.621Z,22.82
2019-02-18T06:43:18.167Z,22.65
2019-02-18T06:45:48.212Z,21.55
2019-02-18T06:48:24.091Z,24.00
2019-02-18T06:50:52.480Z,21.90
2019-02-18T06:53:20.879Z,22.58
2019-02-18T06:55:49.622Z,23.62
2019-02-18T06:58:19.672Z,22.00
2019-02-18T07:01:01.956Z,21.12
2019-02-18T07:03:32.259Z,24.30
2019-02-18T07:06:05.654Z,22.58
2019-02-18T07:08:42.120Z,22.10
2019-02-18T07:11:12.468Z,21.90
2019-02-18T07:13:40.895Z,21.82
2019-02-18T07:16:09.732Z,23.00
2019-02-18T07:18:38.405Z,22.05
2019-02-18T07:21:07.063Z,21.35
2019-02-18T07:23:35.462Z,22.40
2019-02-18T07:26:04.090Z,21.40
2019-02-18T07:28:32.528Z,21.77
2019-02-18T07:31:01.227Z,21.95
2019-02-18T07:33:29.638Z,21.90
2019-02-18T07:35:58.063Z,22.50
2019-02-18T07:38:26.489Z,21.33
2019-02-18T07:40:55.357Z,21.45
2019-02-18T07:43:23.793Z,21.70
2019-02-18T07:45:52.192Z,20.90
2019-02-18T07:48:20.603Z,21.20
2019-02-18T07:50:48.993Z,22.48
2019-02-18T07:53:17.644Z,20.30
2019-02-18T07:55:46.104Z,23.18
2019-02-18T07:58:14.501Z,20.35
2019-02-18T08:00:42.890Z,22.25
2019-02-18T08:03:11.342Z,22.32
2019-02-18T08:05:39.745Z,21.02
2019-02-18T08:08:08.444Z,23.57
2019-02-18T08:10:36.852Z,21.97
2019-02-18T08:13:05.501Z,22.95
2019-02-18T08:15:34.179Z,22.60
2019-02-18T08:18:02.872Z,21.90
2019-02-18T08:20:31.565Z,23.50
2019-02-18T08:23:00.251Z,24.57
2019-02-18T08:25:28.928Z,23.85
2019-02-18T08:27:57.611Z,22.37
2019-02-18T08:30:26.097Z,22.73
2019-02-18T08:32:54.775Z,22.90
2019-02-18T08:35:23.464Z,20.80
2019-02-18T08:37:51.856Z,22.90
2019-02-18T08:40:22.670Z,22.85
2019-02-18T08:42:50.959Z,22.77
2019-02-18T08:45:19.361Z,22.95
2019-02-18T08:47:47.771Z,24.02
2019-02-18T08:50:16.500Z,22.87
2019-02-18T08:52:45.190Z,21.85
2019-02-18T08:55:14.260Z,24.12
2019-02-18T08:57:42.973Z,23.02
2019-02-18T09:00:16.361Z,22.50
2019-02-18T09:02:45.067Z,21.73
2019-02-18T09:05:13.844Z,22.65
2019-02-18T09:07:42.309Z,23.42
2019-02-18T09:10:14.603Z,23.38
2019-02-18T09:12:43.118Z,23.52
2019-02-18T09:15:14.138Z,22.60
2019-02-18T09:17:42.136Z,23.20
2019-02-18T09:20:11.066Z,21.60
2019-02-18T09:22:57.579Z,24.15
2019-02-18T09:25:39.697Z,22.62
2019-02-18T09:28:08.376Z,25.08
2019-02-18T09:30:38.693Z,24.30
2019-02-18T09:33:07.339Z,23.30
2019-02-18T09:35:36.065Z,25.15
2019-02-18T09:38:04.577Z,24.72
2019-02-18T09:40:43.958Z,23.47
2019-02-18T09:43:03.148Z,24.53
2019-02-18T09:45:31.552Z,23.77
2019-02-18T09:48:00.207Z,23.60
2019-02-18T09:50:28.614Z,25.00
2019-02-18T09:52:57.011Z,23.23
2019-02-18T09:55:25.409Z,24.67
2019-02-18T09:57:53.802Z,22.43
2019-02-18T10:00:22.205Z,23.70
2019-02-18T10:02:50.644Z,23.17
2019-02-18T10:05:19.077Z,24.30
2019-02-18T10:07:47.474Z,21.90
2019-02-18T10:10:15.863Z,21.70
2019-02-18T10:12:44.621Z,22.60
2019-02-18T10:15:13.397Z,23.23
2019-02-18T10:17:42.128Z,22.77
2019-02-18T10:20:12.925Z,23.50
2019-02-18T10:22:41.314Z,23.30
2019-02-18T10:25:14.007Z,23.20
2019-02-18T10:27:42.429Z,24.00
2019-02-18T10:30:11.894Z,23.07
2019-02-18T10:32:40.283Z,22.10
2019-02-18T10:35:15.683Z,24.10
2019-02-18T10:37:44.376Z,24.17
2019-02-18T10:40:13.162Z,24.13
2019-02-18T10:42:41.827Z,24.43
2019-02-18T10:45:29.548Z,24.80
2019-02-18T10:47:58.242Z,23.47
2019-02-18T10:50:26.944Z,24.07
2019-02-18T10:52:55.352Z,22.93
2019-02-18T10:55:24.001Z,24.37
2019-02-18T10:57:52.386Z,23.70
2019-02-18T11:00:20.792Z,22.77
2019-02-18T11:02:49.465Z,24.33
2019-02-18T11:05:18.130Z,25.10
2019-02-18T11:07:46.533Z,23.47
2019-02-18T11:10:55.099Z,24.53
2019-02-18T11:13:23.822Z,22.90
2019-02-18T11:15:52.509Z,23.90
2019-02-18T11:18:20.914Z,24.90
2019-02-18T11:20:49.300Z,24.87
2019-02-18T11:23:17.706Z,22.90
2019-02-18T11:25:48.066Z,22.60
2019-02-18T11:28:16.454Z,21.87
2019-02-18T11:31:04.440Z,22.33
2019-02-18T11:33:32.853Z,21.70
2019-02-18T11:36:02.991Z,20.70
2019-02-18T11:38:31.664Z,19.87
2019-02-18T11:41:00.060Z,20.70
2019-02-18T11:43:28.758Z,17.10
2019-02-18T11:45:57.148Z,16.67
2019-02-18T11:48:25.820Z,18.33
2019-02-18T11:50:54.594Z,16.93
2019-02-18T11:53:23.005Z,15.20
2019-02-18T11:55:51.393Z,14.50
2019-02-18T11:58:20.053Z,15.50
2019-02-18T12:00:48.739Z,15.13
2019-02-18T12:03:17.144Z,15.57
2019-02-18T12:05:46.108Z,15.40
2019-02-18T12:08:14.796Z,15.27
2019-02-18T12:10:43.483Z,14.93
2019-02-18T12:13:12.166Z,15.27
2019-02-18T12:15:40.869Z,16.20
2019-02-18T12:18:09.541Z,16.53
2019-02-18T12:20:38.168Z,16.70
2019-02-18T12:23:06.748Z,15.17
2019-02-18T12:25:35.497Z,15.70
2019-02-18T12:28:04.028Z,15.20
2019-02-18T12:30:32.778Z,15.10
2019-02-18T12:33:01.453Z,16.40
2019-02-18T12:35:31.224Z,15.00
2019-02-18T12:38:00.278Z,15.27
2019-02-18T12:40:28.668Z,15.57
2019-02-18T12:42:57.076Z,15.53
2019-02-18T12:45:25.472Z,14.93
2019-02-18T12:47:53.956Z,16.03
2019-02-18T12:50:22.669Z,14.50
2019-02-18T12:52:51.104Z,15.13
2019-02-18T12:55:19.565Z,15.90
2019-02-18T12:57:47.978Z,15.37
2019-02-18T13:00:17.238Z,16.27
2019-02-18T13:02:45.779Z,15.47
2019-02-18T13:05:14.695Z,12.33
2019-02-18T13:07:43.139Z,15.03
2019-02-18T13:10:12.413Z,16.00
2019-02-18T13:12:41.257Z,15.93
2019-02-18T13:15:17.869Z,13.80
2019-02-18T13:17:46.705Z,13.17
2019-02-18T13:20:15.128Z,14.23
2019-02-18T13:22:43.643Z,14.20
2019-02-18T13:25:12.097Z,15.93
2019-02-18T13:27:40.488Z,15.50
2019-02-18T13:30:11.785Z,14.63
2019-02-18T13:32:40.254Z,15.43
2019-02-18T13:35:08.661Z,14.80
2019-02-18T13:37:37.325Z,13.37
2019-02-18T13:40:06.523Z,14.60
2019-02-18T13:42:34.926Z,14.90
2019-02-18T13:45:04.301Z,16.50
2019-02-18T13:47:32.703Z,15.83
2019-02-18T13:50:01.165Z,14.80
2019-02-18T13:52:29.569Z,15.00
2019-02-18T13:54:58.031Z,15.20
2019-02-18T13:57:26.809Z,14.10
2019-02-18T13:59:55.586Z,14.20
2019-02-18T14:02:23.978Z,15.17
2019-02-18T14:04:52.372Z,11.90
2019-02-18T14:07:20.769Z,12.57
2019-02-18T14:09:49.524Z,13.90
2019-02-18T14:12:18.204Z,14.90
2019-02-18T14:14:46.892Z,13.00
2019-02-18T14:17:15.540Z,13.30
2019-02-18T14:19:44.261Z,14.50
2019-02-18T14:22:13.030Z,13.03
2019-02-18T14:24:41.422Z,14.30
2019-02-18T14:27:10.119Z,13.33
2019-02-18T14:29:38.523Z,13.10
2019-02-18T14:32:07.261Z,13.77
2019-02-18T14:34:35.648Z,14.73
2019-02-18T14:37:04.054Z,13.90
2019-02-18T14:39:32.850Z,13.57
2019-02-18T14:42:01.380Z,14.00
2019-02-18T14:44:29.836Z,13.50
2019-02-18T14:46:58.540Z,13.60
2019-02-18T14:49:26.929Z,13.53
2019-02-18T14:51:55.556Z,15.17
2019-02-18T14:54:24.396Z,15.90
2019-02-18T14:56:53.020Z,14.20
2019-02-18T14:59:21.489Z,16.40
2019-02-18T15:01:49.952Z,16.20
2019-02-18T15:04:18.717Z,16.17
2019-02-18T15:06:47.969Z,15.00
2019-02-18T15:09:16.432Z,15.77
2019-02-18T15:11:45.132Z,14.23
2019-02-18T15:14:13.523Z,15.53
2019-02-18T15:16:41.926Z,14.03
2019-02-18T15:19:10.709Z,16.10
2019-02-18T15:21:39.482Z,16.17
2019-02-18T15:24:08.153Z,16.27
2019-02-18T15:26:36.610Z,15.67
2019-02-18T15:29:05.424Z,16.17
2019-02-18T15:31:34.114Z,16.50
2019-02-18T15:34:02.504Z,16.40
2019-02-18T15:36:30.916Z,17.27
2019-02-18T15:38:59.362Z,15.47
2019-02-18T15:41:27.818Z,15.87
2019-02-18T15:43:56.222Z,17.47
2019-02-18T15:46:24.844Z,16.73
2019-02-18T15:48:53.245Z,17.60
2019-02-18T15:51:21.914Z,19.17
2019-02-18T15:53:50.640Z,17.60
2019-02-18T15:56:19.109Z,18.73
2019-02-18T15:58:47.499Z,19.00
2019-02-18T16:01:15.898Z,19.47
2019-02-18T16:03:44.290Z,21.30
2019-02-18T16:06:13.025Z,20.63
2019-02-18T16:08:41.438Z,21.83
2019-02-18T16:11:09.847Z,19.60
2019-02-18T16:13:38.263Z,19.63
2019-02-18T16:16:06.977Z,20.93
2019-02-18T16:18:35.662Z,22.63
2019-02-18T16:21:04.347Z,20.73
2019-02-18T16:23:32.922Z,21.50
2019-02-18T16:26:01.319Z,21.73
2019-02-18T16:28:29.993Z,21.33
2019-02-18T16:30:58.398Z,21.00
2019-02-18T16:33:27.055Z,21.70
2019-02-18T16:35:55.697Z,20.00
2019-02-18T16:38:24.435Z,20.47
2019-02-18T16:40:52.843Z,20.03
2019-02-18T16:43:21.901Z,19.17
2019-02-18T16:45:50.295Z,20.57
2019-02-18T16:48:18.958Z,19.17
2019-02-18T16:50:47.652Z,19.20
2019-02-18T16:53:16.644Z,21.40
2019-02-18T16:55:45.068Z,21.30
2019-02-18T16:58:13.705Z,21.20
2019-02-18T17:00:42.501Z,21.80
2019-02-18T17:03:11.190Z,21.93
2019-02-18T17:05:39.981Z,21.53
2019-02-18T17:08:08.661Z,21.33
2019-02-18T17:10:37.458Z,22.53
2019-02-18T17:13:08.421Z,22.87
2019-02-18T17:15:36.265Z,21.90
2019-02-18T17:18:04.896Z,22.87
2019-02-18T17:20:33.622Z,22.87
2019-02-18T17:23:02.256Z,23.40
2019-02-18T17:25:31.332Z,24.23
2019-02-18T17:27:59.713Z,24.13
2019-02-18T17:30:28.111Z,24.73
2019-02-18T17:32:56.500Z,24.47
2019-02-18T17:35:25.242Z,26.33
2019-02-18T17:37:53.934Z,25.67
2019-02-18T17:40:22.708Z,26.70
2019-02-18T17:42:51.106Z,25.30
2019-02-18T17:45:19.824Z,25.10
2019-02-18T17:47:48.224Z,23.70
2019-02-18T17:50:56.515Z,22.73
2019-02-18T17:53:25.192Z,20.83
2019-02-18T17:55:53.586Z,19.70
2019-02-18T17:58:41.551Z,19.10
2019-02-18T18:01:10.113Z,19.47
2019-02-18T18:03:38.730Z,19.00
2019-02-18T18:06:07.124Z,19.67
2019-02-18T18:08:35.753Z,18.23
2019-02-18T18:11:04.222Z,18.30
2019-02-18T18:13:32.902Z,18.40
2019-02-18T18:16:03.085Z,17.00
2019-02-18T18:18:31.812Z,19.03
2019-02-18T18:21:00.195Z,18.37
2019-02-18T18:23:28.591Z,18.77
2019-02-18T18:25:56.986Z,19.73
2019-02-18T18:28:25.716Z,19.50
2019-02-18T18:30:54.105Z,20.57
2019-02-18T18:33:22.777Z,17.40
2019-02-18T18:35:51.175Z,17.57
2019-02-18T18:38:19.560Z,20.70
2019-02-18T18:40:47.958Z,20.43
2019-02-18T18:43:16.604Z,19.70
2019-02-18T18:45:45.004Z,18.00
2019-02-18T18:48:13.388Z,19.60
2019-02-18T18:50:42.049Z,20.57
2019-02-18T18:53:10.426Z,19.93
2019-02-18T18:55:39.108Z,20.10
2019-02-18T18:58:07.510Z,19.23
2019-02-18T19:00:36.171Z,19.60
2019-02-18T19:03:06.297Z,17.77
2019-02-18T19:05:34.924Z,19.27
2019-02-18T19:08:03.332Z,17.57
2019-02-18T19:10:31.710Z,19.70
2019-02-18T19:13:00.099Z,19.70
2019-02-18T19:15:28.738Z,19.37
2019-02-18T19:17:58.838Z,18.90
2019-02-18T19:20:27.504Z,19.60
2019-02-18T19:22:55.928Z,19.20
2019-02-18T19:25:24.390Z,18.27
2019-02-18T19:27:52.782Z,19.23
2019-02-18T19:30:40.507Z,20.13
2019-02-18T19:33:08.891Z,19.23
2019-02-18T19:35:37.287Z,18.90
2019-02-18T19:38:05.670Z,18.33
2019-02-18T19:40:34.055Z,21.30
2019-02-18T19:43:02.487Z,20.02
2019-02-18T19:45:30.924Z,19.20
2019-02-18T19:47:59.618Z,18.83
2019-02-18T19:50:28.306Z,18.73
2019-02-18T19:52:57.003Z,20.07
2019-02-18T19:55:25.573Z,18.97
2019-02-18T19:57:55.796Z,19.47
2019-02-18T20:00:24.191Z,19.53
2019-02-18T20:02:52.877Z,20.00
2019-02-18T20:05:21.546Z,19.10
2019-02-18T20:07:50.340Z,19.07
2019-02-18T20:10:19.035Z,21.73
2019-02-18T20:12:47.668Z,20.10
2019-02-18T20:15:56.342Z,21.10
2019-02-18T20:18:25.036Z,21.50
2019-02-18T20:20:55.471Z,19.20
2019-02-18T20:23:24.128Z,22.10
2019-02-18T20:25:52.810Z,22.02
2019-02-18T20:28:40.957Z,21.17
2019-02-18T20:31:11.395Z,21.30
2019-02-18T20:33:40.067Z,20.83
2019-02-18T20:36:08.723Z,19.57
2019-02-18T20:38:37.444Z,18.60
2019-02-18T20:41:05.953Z,19.13
2019-02-18T20:43:34.343Z,19.40
2019-02-18T20:46:03.098Z,19.23
2019-02-18T20:48:31.487Z,19.60
2019-02-18T20:50:59.885Z,18.90
2019-02-18T20:53:28.532Z,19.60
2019-02-18T20:55:56.949Z,19.90
2019-02-18T20:58:25.339Z,19.30
2019-02-18T21:00:53.896Z,20.82
2019-02-18T21:03:22.289Z,20.75
2019-02-18T21:05:50.919Z,19.70
2019-02-18T21:08:19.320Z,20.40
2019-02-18T21:10:47.747Z,19.52
2019-02-18T21:13:16.148Z,19.52
2019-02-18T21:15:44.539Z,21.77
2019-02-18T21:18:15.187Z,22.82
2019-02-18T21:21:03.256Z,20.70
2019-02-18T21:23:31.668Z,22.58
2019-02-18T21:26:00.059Z,21.45
2019-02-18T21:28:28.683Z,21.60
2019-02-18T21:30:57.087Z,22.27
2019-02-18T21:33:25.735Z,22.82
2019-02-18T21:35:54.175Z,22.35
2019-02-18T21:38:22.572Z,23.00
2019-02-18T21:40:50.979Z,20.37
2019-02-18T21:43:19.659Z,21.42
2019-02-18T21:45:48.282Z,21.60
2019-02-18T21:48:16.713Z,22.32
2019-02-18T21:50:45.424Z,22.22
2019-02-18T21:53:13.929Z,24.37
2019-02-18T21:55:42.575Z,22.00
2019-02-18T21:58:11.263Z,21.80
2019-02-18T22:00:39.928Z,22.50
2019-02-18T22:03:08.321Z,20.82
2019-02-18T22:05:37.011Z,22.70
2019-02-18T22:08:05.707Z,20.70
2019-02-18T22:10:34.102Z,21.30
2019-02-18T22:13:02.490Z,21.75
2019-02-18T22:15:30.898Z,22.10
2019-02-18T22:17:59.532Z,19.62
2019-02-18T22:20:27.911Z,22.25
2019-02-18T22:22:56.611Z,19.12
2019-02-18T22:25:25.271Z,19.27
2019-02-18T22:27:53.982Z,19.27
2019-02-18T22:30:22.384Z,20.70
2019-02-18T22:32:50.807Z,20.52
2019-02-18T22:35:19.279Z,22.85
2019-02-18T22:37:47.691Z,25.30
2019-02-18T22:40:16.206Z,25.10
2019-02-18T22:42:44.973Z,24.52
2019-02-18T22:45:53.314Z,24.47
2019-02-18T22:48:21.947Z,24.25
2019-02-18T22:51:09.684Z,24.52
2019-02-18T22:53:57.762Z,22.22
2019-02-18T22:56:26.418Z,21.75
2019-02-18T22:58:54.809Z,25.85
2019-02-18T23:02:03.120Z,26.25
2019-02-18T23:04:31.783Z,27.55
2019-02-18T23:07:00.212Z,28.85
2019-02-18T23:09:28.671Z,28.17
2019-02-18T23:11:57.065Z,28.55
2019-02-18T23:14:27.451Z,27.98
2019-02-18T23:16:56.134Z,30.48
2019-02-18T23:19:24.535Z,27.75
2019-02-18T23:21:53.199Z,26.45
2019-02-18T23:24:21.886Z,28.87
2019-02-18T23:26:50.277Z,26.07
2019-02-18T23:29:18.954Z,25.85
2019-02-18T23:31:49.087Z,25.65
2019-02-18T23:34:17.471Z,27.32
2019-02-18T23:36:45.885Z,27.15
2019-02-18T23:39:14.562Z,26.73
2019-02-18T23:41:42.979Z,25.77
2019-02-18T23:44:30.781Z,28.10
2019-02-18T23:46:59.459Z,26.68
2019-02-18T23:49:27.861Z,29.27
2019-02-18T23:51:56.255Z,30.52
2019-02-18T23:54:25.010Z,31.93
2019-02-18T23:56:53.409Z,32.10
2019-02-18T23:59:21.817Z,32.50
